sensor_id;sensor_type;location;lat;lon;timestamp;pressure;altitude;pressure_sealevel;temperature;humidity
9893;BME280;4985;49.092;8.542;2023-05-07T00:00:17;99226.03;;;22.92;52.20
9893;BME280;4985;49.092;8.542;2023-05-07T00:02:44;99217.16;;;22.92;52.22
9893;BME280;4985;49.092;8.542;2023-05-07T00:05:11;99220.66;;;22.92;52.21
9893;BME280;4985;49.092;8.542;2023-05-07T00:07:38;99220.91;;;22.91;52.23
9893;BME280;4985;49.092;8.542;2023-05-07T00:10:05;99222.78;;;22.90;52.23
9893;BME280;4985;49.092;8.542;2023-05-07T00:12:34;99225.47;;;22.90;52.23
9893;BME280;4985;49.092;8.542;2023-05-07T00:15:01;99222.22;;;22.88;52.25
9893;BME280;4985;49.092;8.542;2023-05-07T00:17:27;99215.78;;;22.89;52.25
9893;BME280;4985;49.092;8.542;2023-05-07T00:19:54;99210.44;;;22.89;52.26
9893;BME280;4985;49.092;8.542;2023-05-07T00:22:20;99205.88;;;22.90;52.26
9893;BME280;4985;49.092;8.542;2023-05-07T00:24:47;99205.88;;;22.90;52.26
9893;BME280;4985;49.092;8.542;2023-05-07T00:27:14;99197.25;;;22.88;52.26
9893;BME280;4985;49.092;8.542;2023-05-07T00:29:41;99202.63;;;22.88;52.27
9893;BME280;4985;49.092;8.542;2023-05-07T00:32:08;99199.94;;;22.88;52.27
9893;BME280;4985;49.092;8.542;2023-05-07T00:34:35;99202.63;;;22.88;52.28
9893;BME280;4985;49.092;8.542;2023-05-07T00:37:01;99212.53;;;22.87;52.28
9893;BME280;4985;49.092;8.542;2023-05-07T00:39:28;99205.53;;;22.86;52.29
9893;BME280;4985;49.092;8.542;2023-05-07T00:41:55;99199.34;;;22.86;52.28
9893;BME280;4985;49.092;8.542;2023-05-07T00:44:22;99200.97;;;22.87;52.28
9893;BME280;4985;49.092;8.542;2023-05-07T00:46:50;99204.72;;;22.86;52.27
9893;BME280;4985;49.092;8.542;2023-05-07T00:49:17;99197.72;;;22.85;52.28
9893;BME280;4985;49.092;8.542;2023-05-07T00:51:44;99197.72;;;22.85;52.27
9893;BME280;4985;49.092;8.542;2023-05-07T00:54:11;99196.91;;;22.84;52.29
9893;BME280;4985;49.092;8.542;2023-05-07T00:56:39;99195.03;;;22.85;52.30
9893;BME280;4985;49.092;8.542;2023-05-07T00:59:06;99197.72;;;22.85;52.28
9893;BME280;4985;49.092;8.542;2023-05-07T01:01:33;99183.50;;;22.84;52.29
9893;BME280;4985;49.092;8.542;2023-05-07T01:04:01;99188.88;;;22.84;52.27
9893;BME280;4985;49.092;8.542;2023-05-07T01:06:29;99175.44;;;22.84;52.29
9893;BME280;4985;49.092;8.542;2023-05-07T01:08:56;99179.19;;;22.83;52.31
9893;BME280;4985;49.092;8.542;2023-05-07T01:11:23;99171.34;;;22.82;52.31
9893;BME280;4985;49.092;8.542;2023-05-07T01:13:50;99176.72;;;22.82;52.30
9893;BME280;4985;49.092;8.542;2023-05-07T01:16:17;99176.72;;;22.82;52.31
9893;BME280;4985;49.092;8.542;2023-05-07T01:18:44;99185.84;;;22.81;52.32
9893;BME280;4985;49.092;8.542;2023-05-07T01:21:15;99177.78;;;22.81;52.31
9893;BME280;4985;49.092;8.542;2023-05-07T01:23:45;99183.16;;;22.81;52.32
9893;BME280;4985;49.092;8.542;2023-05-07T01:26:13;99183.16;;;22.81;52.32
9893;BME280;4985;49.092;8.542;2023-05-07T01:28:39;99182.34;;;22.80;52.33
9893;BME280;4985;49.092;8.542;2023-05-07T01:31:06;99177.22;;;22.79;52.33
9893;BME280;4985;49.092;8.542;2023-05-07T01:33:36;99181.53;;;22.80;52.33
9893;BME280;4985;49.092;8.542;2023-05-07T01:36:05;99182.59;;;22.79;52.33
9893;BME280;4985;49.092;8.542;2023-05-07T01:38:34;99185.28;;;22.79;52.35
9893;BME280;4985;49.092;8.542;2023-05-07T01:41:02;99180.97;;;22.78;52.34
9893;BME280;4985;49.092;8.542;2023-05-07T01:43:30;99183.66;;;22.78;52.33
9893;BME280;4985;49.092;8.542;2023-05-07T01:45:57;99186.34;;;22.78;52.33
9893;BME280;4985;49.092;8.542;2023-05-07T01:48:25;99188.22;;;22.77;52.33
9893;BME280;4985;49.092;8.542;2023-05-07T01:50:52;99187.16;;;22.78;52.33
9893;BME280;4985;49.092;8.542;2023-05-07T01:53:19;99180.16;;;22.77;52.32
9893;BME280;4985;49.092;8.542;2023-05-07T01:55:45;99176.66;;;22.77;52.33
9893;BME280;4985;49.092;8.542;2023-05-07T01:58:13;99189.22;;;22.76;52.33
9893;BME280;4985;49.092;8.542;2023-05-07T02:00:40;99183.88;;;22.76;52.32
9893;BME280;4985;49.092;8.542;2023-05-07T02:03:07;99184.13;;;22.75;52.33
9893;BME280;4985;49.092;8.542;2023-05-07T02:05:33;99184.13;;;22.75;52.34
9893;BME280;4985;49.092;8.542;2023-05-07T02:08:00;99186.00;;;22.74;52.35
9893;BME280;4985;49.092;8.542;2023-05-07T02:10:26;99191.34;;;22.74;52.34
9893;BME280;4985;49.092;8.542;2023-05-07T02:12:53;99195.91;;;22.74;52.33
9893;BME280;4985;49.092;8.542;2023-05-07T02:15:21;99189.72;;;22.73;52.33
9893;BME280;4985;49.092;8.542;2023-05-07T02:18:01;99192.41;;;22.73;52.34
9893;BME280;4985;49.092;8.542;2023-05-07T02:20:28;99188.91;;;22.73;52.32
9893;BME280;4985;49.092;8.542;2023-05-07T02:22:54;99188.91;;;22.73;52.34
9893;BME280;4985;49.092;8.542;2023-05-07T02:25:21;99183.56;;;22.73;52.33
9893;BME280;4985;49.092;8.542;2023-05-07T02:27:48;99189.97;;;22.72;52.34
9893;BME280;4985;49.092;8.542;2023-05-07T02:30:14;99181.94;;;22.72;52.33
9893;BME280;4985;49.092;8.542;2023-05-07T02:32:42;99183.00;;;22.71;52.33
9893;BME280;4985;49.092;8.542;2023-05-07T02:35:09;99192.66;;;22.72;52.32
9893;BME280;4985;49.092;8.542;2023-05-07T02:37:36;99187.28;;;22.72;52.33
9893;BME280;4985;49.092;8.542;2023-05-07T02:40:03;99185.66;;;22.71;52.31
9893;BME280;4985;49.092;8.542;2023-05-07T02:42:30;99189.16;;;22.71;52.32
9893;BME280;4985;49.092;8.542;2023-05-07T02:44:57;99185.66;;;22.71;52.32
9893;BME280;4985;49.092;8.542;2023-05-07T02:47:24;99191.03;;;22.71;52.32
9893;BME280;4985;49.092;8.542;2023-05-07T02:49:53;99185.66;;;22.71;52.32
9893;BME280;4985;49.092;8.542;2023-05-07T02:52:20;99193.97;;;22.69;52.30
9893;BME280;4985;49.092;8.542;2023-05-07T02:54:46;99183.25;;;22.69;52.32
9893;BME280;4985;49.092;8.542;2023-05-07T02:57:13;99182.44;;;22.69;52.32
9893;BME280;4985;49.092;8.542;2023-05-07T02:59:40;99178.13;;;22.67;52.31
9893;BME280;4985;49.092;8.542;2023-05-07T03:02:06;99178.94;;;22.68;52.33
9893;BME280;4985;49.092;8.542;2023-05-07T03:04:33;99175.44;;;22.67;52.33
9893;BME280;4985;49.092;8.542;2023-05-07T03:07:01;99168.44;;;22.66;52.33
9893;BME280;4985;49.092;8.542;2023-05-07T03:09:27;99164.97;;;22.66;52.34
9893;BME280;4985;49.092;8.542;2023-05-07T03:11:54;99166.81;;;22.65;52.34
9893;BME280;4985;49.092;8.542;2023-05-07T03:14:20;99165.16;;;22.64;52.35
9893;BME280;4985;49.092;8.542;2023-05-07T03:16:47;99161.47;;;22.65;52.34
9893;BME280;4985;49.092;8.542;2023-05-07T03:19:13;99154.44;;;22.64;52.34
9893;BME280;4985;49.092;8.542;2023-05-07T03:21:40;99155.25;;;22.65;52.35
9893;BME280;4985;49.092;8.542;2023-05-07T03:24:08;99155.25;;;22.65;52.35
9893;BME280;4985;49.092;8.542;2023-05-07T03:26:34;99142.09;;;22.63;52.36
9893;BME280;4985;49.092;8.542;2023-05-07T03:29:01;99149.06;;;22.64;52.35
9893;BME280;4985;49.092;8.542;2023-05-07T03:31:27;99143.16;;;22.62;52.37
9893;BME280;4985;49.092;8.542;2023-05-07T03:36:22;99138.03;;;22.61;52.38
9893;BME280;4985;49.092;8.542;2023-05-07T03:38:49;99149.81;;;22.60;52.38
9893;BME280;4985;49.092;8.542;2023-05-07T03:41:17;99141.78;;;22.60;52.38
9893;BME280;4985;49.092;8.542;2023-05-07T03:43:43;99146.31;;;22.59;52.39
9893;BME280;4985;49.092;8.542;2023-05-07T03:46:10;99145.50;;;22.59;52.40
9893;BME280;4985;49.092;8.542;2023-05-07T03:48:36;99147.37;;;22.58;52.38
9893;BME280;4985;49.092;8.542;2023-05-07T03:51:03;99155.44;;;22.58;52.39
9893;BME280;4985;49.092;8.542;2023-05-07T03:53:30;99158.94;;;22.59;52.38
9893;BME280;4985;49.092;8.542;2023-05-07T03:55:56;99160.81;;;22.58;52.39
9893;BME280;4985;49.092;8.542;2023-05-07T03:58:24;99160.81;;;22.58;52.40
9893;BME280;4985;49.092;8.542;2023-05-07T04:00:51;99161.84;;;22.57;52.40
9893;BME280;4985;49.092;8.542;2023-05-07T04:03:17;99165.59;;;22.56;52.40
9893;BME280;4985;49.092;8.542;2023-05-07T04:05:44;99162.91;;;22.56;52.40
9893;BME280;4985;49.092;8.542;2023-05-07T04:08:10;99163.72;;;22.57;52.41
9893;BME280;4985;49.092;8.542;2023-05-07T04:10:37;99175.53;;;22.56;52.41
9893;BME280;4985;49.092;8.542;2023-05-07T04:13:03;99177.41;;;22.55;52.41
9893;BME280;4985;49.092;8.542;2023-05-07T04:15:31;99178.19;;;22.56;52.40
9893;BME280;4985;49.092;8.542;2023-05-07T04:17:58;99184.38;;;22.56;52.41
9893;BME280;4985;49.092;8.542;2023-05-07T04:20:25;99176.59;;;22.55;52.42
9893;BME280;4985;49.092;8.542;2023-05-07T04:22:51;99176.59;;;22.55;52.41
9893;BME280;4985;49.092;8.542;2023-05-07T04:25:18;99181.12;;;22.54;52.41
9893;BME280;4985;49.092;8.542;2023-05-07T04:27:44;99191.88;;;22.54;52.41
9893;BME280;4985;49.092;8.542;2023-05-07T04:30:12;99191.88;;;22.54;52.41
9893;BME280;4985;49.092;8.542;2023-05-07T04:32:40;99191.06;;;22.54;52.43
9893;BME280;4985;49.092;8.542;2023-05-07T04:35:07;99197.44;;;22.53;52.42
9893;BME280;4985;49.092;8.542;2023-05-07T04:37:34;99198.25;;;22.53;52.42
9893;BME280;4985;49.092;8.542;2023-05-07T04:40:01;99196.62;;;22.52;52.42
9893;BME280;4985;49.092;8.542;2023-05-07T04:42:28;99204.69;;;22.52;52.42
9893;BME280;4985;49.092;8.542;2023-05-07T04:44:54;99192.31;;;22.51;52.42
9893;BME280;4985;49.092;8.542;2023-05-07T04:47:21;99191.50;;;22.51;52.41
9893;BME280;4985;49.092;8.542;2023-05-07T04:49:49;99197.69;;;22.51;52.41
9893;BME280;4985;49.092;8.542;2023-05-07T04:52:15;99200.37;;;22.51;52.41
9893;BME280;4985;49.092;8.542;2023-05-07T04:54:42;99205.75;;;22.51;52.41
9893;BME280;4985;49.092;8.542;2023-05-07T04:57:09;99211.09;;;22.51;52.40
9893;BME280;4985;49.092;8.542;2023-05-07T04:59:35;99198.75;;;22.50;52.38
9893;BME280;4985;49.092;8.542;2023-05-07T05:02:02;99205.75;;;22.51;52.36
9893;BME280;4985;49.092;8.542;2023-05-07T05:04:30;99205.75;;;22.51;52.37
9893;BME280;4985;49.092;8.542;2023-05-07T05:06:58;99209.47;;;22.50;52.36
9893;BME280;4985;49.092;8.542;2023-05-07T05:09:24;99213.78;;;22.51;52.36
9893;BME280;4985;49.092;8.542;2023-05-07T05:11:51;99211.09;;;22.51;52.35
9893;BME280;4985;49.092;8.542;2023-05-07T05:14:17;99205.75;;;22.51;52.36
9893;BME280;4985;49.092;8.542;2023-05-07T05:16:44;99206.78;;;22.50;52.35
9893;BME280;4985;49.092;8.542;2023-05-07T05:19:10;99207.59;;;22.51;52.34
9893;BME280;4985;49.092;8.542;2023-05-07T05:21:37;99219.16;;;22.51;52.34
9893;BME280;4985;49.092;8.542;2023-05-07T05:24:05;99221.03;;;22.51;52.35
9893;BME280;4985;49.092;8.542;2023-05-07T05:26:32;99221.03;;;22.51;52.35
9893;BME280;4985;49.092;8.542;2023-05-07T05:28:58;99224.50;;;22.51;52.36
9893;BME280;4985;49.092;8.542;2023-05-07T05:31:25;99221.84;;;22.51;52.42
9893;BME280;4985;49.092;8.542;2023-05-07T05:33:52;99222.87;;;22.50;52.38
9893;BME280;4985;49.092;8.542;2023-05-07T05:36:18;99225.56;;;22.50;52.41
9893;BME280;4985;49.092;8.542;2023-05-07T05:38:45;99222.09;;;22.50;52.42
9893;BME280;4985;49.092;8.542;2023-05-07T05:41:13;99216.72;;;22.50;52.40
9893;BME280;4985;49.092;8.542;2023-05-07T05:43:39;99215.91;;;22.49;52.43
9893;BME280;4985;49.092;8.542;2023-05-07T05:46:06;99221.25;;;22.49;52.45
9893;BME280;4985;49.092;8.542;2023-05-07T05:48:34;99228.50;;;22.49;52.48
9893;BME280;4985;49.092;8.542;2023-05-07T05:51:00;99228.50;;;22.49;52.51
9893;BME280;4985;49.092;8.542;2023-05-07T05:53:27;99230.38;;;22.48;52.50
9893;BME280;4985;49.092;8.542;2023-05-07T05:55:53;99223.37;;;22.47;52.52
9893;BME280;4985;49.092;8.542;2023-05-07T05:58:21;99234.13;;;22.47;52.54
9893;BME280;4985;49.092;8.542;2023-05-07T06:00:48;99229.56;;;22.48;52.55
9893;BME280;4985;49.092;8.542;2023-05-07T06:03:17;99235.16;;;22.46;52.58
9893;BME280;4985;49.092;8.542;2023-05-07T06:05:43;99228.19;;;22.45;52.60
9893;BME280;4985;49.092;8.542;2023-05-07T06:08:10;99230.87;;;22.45;52.61
9893;BME280;4985;49.092;8.542;2023-05-07T06:10:37;99228.19;;;22.45;52.62
9893;BME280;4985;49.092;8.542;2023-05-07T06:13:03;99231.13;;;22.44;52.62
9893;BME280;4985;49.092;8.542;2023-05-07T06:15:31;99233.78;;;22.44;52.61
9893;BME280;4985;49.092;8.542;2023-05-07T06:17:58;99234.59;;;22.44;52.61
9893;BME280;4985;49.092;8.542;2023-05-07T06:20:24;99234.59;;;22.44;52.61
9893;BME280;4985;49.092;8.542;2023-05-07T06:22:51;99221.44;;;22.43;52.62
9893;BME280;4985;49.092;8.542;2023-05-07T06:25:18;99216.06;;;22.43;52.63
9893;BME280;4985;49.092;8.542;2023-05-07T06:27:45;99214.41;;;22.42;52.63
9893;BME280;4985;49.092;8.542;2023-05-07T06:30:12;99215.22;;;22.42;52.63
9893;BME280;4985;49.092;8.542;2023-05-07T06:32:41;99228.06;;;22.40;52.63
9893;BME280;4985;49.092;8.542;2023-05-07T06:35:08;99235.06;;;22.41;52.65
9893;BME280;4985;49.092;8.542;2023-05-07T06:37:34;99241.25;;;22.42;52.66
9893;BME280;4985;49.092;8.542;2023-05-07T06:40:04;99237.75;;;22.41;52.66
9893;BME280;4985;49.092;8.542;2023-05-07T06:42:31;99232.63;;;22.40;52.67
9893;BME280;4985;49.092;8.542;2023-05-07T06:44:57;99231.56;;;22.41;52.68
9893;BME280;4985;49.092;8.542;2023-05-07T06:47:24;99221.09;;;22.39;52.70
9893;BME280;4985;49.092;8.542;2023-05-07T06:49:52;99223.78;;;22.39;52.71
9893;BME280;4985;49.092;8.542;2023-05-07T06:52:18;99229.94;;;22.40;52.70
9893;BME280;4985;49.092;8.542;2023-05-07T06:54:45;99224.59;;;22.40;52.70
9893;BME280;4985;49.092;8.542;2023-05-07T06:57:12;99221.91;;;22.40;52.70
9893;BME280;4985;49.092;8.542;2023-05-07T06:59:38;99227.25;;;22.40;52.70
9893;BME280;4985;49.092;8.542;2023-05-07T07:02:05;99222.16;;;22.38;52.71
9893;BME280;4985;49.092;8.542;2023-05-07T07:04:32;99237.19;;;22.39;52.72
9893;BME280;4985;49.092;8.542;2023-05-07T07:07:00;99234.50;;;22.39;52.71
9893;BME280;4985;49.092;8.542;2023-05-07T07:09:26;99226.44;;;22.39;52.69
9893;BME280;4985;49.092;8.542;2023-05-07T07:11:53;99227.25;;;22.40;52.69
9893;BME280;4985;49.092;8.542;2023-05-07T07:14:19;99219.22;;;22.40;52.70
9893;BME280;4985;49.092;8.542;2023-05-07T07:16:46;99223.78;;;22.39;52.71
9893;BME280;4985;49.092;8.542;2023-05-07T07:19:13;99229.13;;;22.39;52.73
9893;BME280;4985;49.092;8.542;2023-05-07T07:21:40;99222.97;;;22.38;52.74
9893;BME280;4985;49.092;8.542;2023-05-07T07:24:08;99218.41;;;22.39;52.73
9893;BME280;4985;49.092;8.542;2023-05-07T07:26:35;99223.19;;;22.37;52.75
9893;BME280;4985;49.092;8.542;2023-05-07T07:29:01;99228.56;;;22.37;52.75
9893;BME280;4985;49.092;8.542;2023-05-07T07:31:28;99240.91;;;22.38;52.74
9893;BME280;4985;49.092;8.542;2023-05-07T07:33:55;99235.56;;;22.38;52.75
9893;BME280;4985;49.092;8.542;2023-05-07T07:36:22;99231.00;;;22.38;52.74
9893;BME280;4985;49.092;8.542;2023-05-07T07:38:48;99222.72;;;22.40;52.73
9893;BME280;4985;49.092;8.542;2023-05-07T07:41:16;99224.34;;;22.41;52.70
9893;BME280;4985;49.092;8.542;2023-05-07T07:43:43;99231.56;;;22.41;52.70
9893;BME280;4985;49.092;8.542;2023-05-07T07:46:09;99236.94;;;22.41;52.71
9893;BME280;4985;49.092;8.542;2023-05-07T07:48:36;99245.78;;;22.41;52.72
9893;BME280;4985;49.092;8.542;2023-05-07T07:51:02;99244.97;;;22.41;52.75
9893;BME280;4985;49.092;8.542;2023-05-07T07:53:29;99243.09;;;22.41;52.74
9893;BME280;4985;49.092;8.542;2023-05-07T07:55:56;99242.31;;;22.41;52.75
9893;BME280;4985;49.092;8.542;2023-05-07T07:58:24;99232.63;;;22.40;52.77
9893;BME280;4985;49.092;8.542;2023-05-07T08:00:51;99236.13;;;22.40;52.79
9893;BME280;4985;49.092;8.542;2023-05-07T08:03:17;99238.00;;;22.40;52.80
9893;BME280;4985;49.092;8.542;2023-05-07T08:05:44;99244.16;;;22.40;52.82
9893;BME280;4985;49.092;8.542;2023-05-07T08:08:11;99244.16;;;22.40;52.80
9893;BME280;4985;49.092;8.542;2023-05-07T08:10:38;99243.72;;;22.43;52.77
9893;BME280;4985;49.092;8.542;2023-05-07T08:13:05;99240.22;;;22.43;52.77
9893;BME280;4985;49.092;8.542;2023-05-07T08:15:33;99246.59;;;22.42;52.80
9893;BME280;4985;49.092;8.542;2023-05-07T08:18:00;99235.56;;;22.38;52.80
9893;BME280;4985;49.092;8.542;2023-05-07T08:20:28;99248.25;;;22.43;52.81
9893;BME280;4985;49.092;8.542;2023-05-07T08:22:54;99246.59;;;22.42;52.83
9893;BME280;4985;49.092;8.542;2023-05-07T08:25:21;99235.88;;;22.42;52.84
9893;BME280;4985;49.092;8.542;2023-05-07T08:27:48;99235.06;;;22.41;52.83
9893;BME280;4985;49.092;8.542;2023-05-07T08:30:15;99235.88;;;22.42;52.84
9893;BME280;4985;49.092;8.542;2023-05-07T08:32:43;99240.44;;;22.41;52.85
9893;BME280;4985;49.092;8.542;2023-05-07T08:35:09;99251.97;;;22.42;52.86
9893;BME280;4985;49.092;8.542;2023-05-07T08:37:36;99245.56;;;22.43;52.85
9893;BME280;4985;49.092;8.542;2023-05-07T08:40:03;99245.34;;;22.44;52.82
9893;BME280;4985;49.092;8.542;2023-05-07T08:42:32;99248.81;;;22.45;52.80
9893;BME280;4985;49.092;8.542;2023-05-07T08:45:02;99244.28;;;22.45;52.80
9893;BME280;4985;49.092;8.542;2023-05-07T08:47:40;99249.41;;;22.47;52.78
9893;BME280;4985;49.092;8.542;2023-05-07T08:50:10;99255.56;;;22.47;52.78
9893;BME280;4985;49.092;8.542;2023-05-07T08:52:37;99249.41;;;22.47;52.79
9893;BME280;4985;49.092;8.542;2023-05-07T08:55:04;99254.75;;;22.47;52.81
9893;BME280;4985;49.092;8.542;2023-05-07T08:57:31;99246.97;;;22.45;52.83
9893;BME280;4985;49.092;8.542;2023-05-07T08:59:58;99246.97;;;22.45;52.86
9893;BME280;4985;49.092;8.542;2023-05-07T09:02:24;99248.59;;;22.46;52.88
9893;BME280;4985;49.092;8.542;2023-05-07T09:04:51;99254.19;;;22.45;52.89
9893;BME280;4985;49.092;8.542;2023-05-07T09:07:20;99250.69;;;22.44;52.92
9893;BME280;4985;49.092;8.542;2023-05-07T09:09:46;99245.34;;;22.44;52.93
9893;BME280;4985;49.092;8.542;2023-05-07T09:12:13;99241.59;;;22.45;52.94
9893;BME280;4985;49.092;8.542;2023-05-07T09:14:40;99242.66;;;22.44;52.97
9893;BME280;4985;49.092;8.542;2023-05-07T09:17:06;99246.97;;;22.45;52.98
9893;BME280;4985;49.092;8.542;2023-05-07T09:19:33;99241.59;;;22.45;52.97
9893;BME280;4985;49.092;8.542;2023-05-07T09:22:00;99238.91;;;22.45;52.99
9893;BME280;4985;49.092;8.542;2023-05-07T09:24:29;99243.22;;;22.46;52.99
9893;BME280;4985;49.092;8.542;2023-05-07T09:27:00;99243.22;;;22.46;52.99
9893;BME280;4985;49.092;8.542;2023-05-07T09:29:27;99237.84;;;22.46;53.00
9893;BME280;4985;49.092;8.542;2023-05-07T09:31:55;99232.50;;;22.46;53.03
9893;BME280;4985;49.092;8.542;2023-05-07T09:34:21;99232.50;;;22.46;53.05
9893;BME280;4985;49.092;8.542;2023-05-07T09:36:48;99235.16;;;22.46;53.08
9893;BME280;4985;49.092;8.542;2023-05-07T09:39:15;99229.81;;;22.46;53.11
9893;BME280;4985;49.092;8.542;2023-05-07T09:41:47;99237.84;;;22.46;53.12
9893;BME280;4985;49.092;8.542;2023-05-07T09:44:15;99227.62;;;22.43;53.13
9893;BME280;4985;49.092;8.542;2023-05-07T09:46:43;99234.94;;;22.48;53.14
9893;BME280;4985;49.092;8.542;2023-05-07T09:49:13;99237.34;;;22.49;53.14
9893;BME280;4985;49.092;8.542;2023-05-07T09:51:45;99222.81;;;22.45;53.15
9893;BME280;4985;49.092;8.542;2023-05-07T09:54:14;99223.94;;;22.49;53.14
9893;BME280;4985;49.092;8.542;2023-05-07T09:56:42;99223.94;;;22.49;53.15
9893;BME280;4985;49.092;8.542;2023-05-07T09:59:13;99222.09;;;22.50;53.15
9893;BME280;4985;49.092;8.542;2023-05-07T10:01:41;99217.53;;;22.50;53.17
9893;BME280;4985;49.092;8.542;2023-05-07T10:04:08;99222.87;;;22.50;53.19
9893;BME280;4985;49.092;8.542;2023-05-07T10:06:35;99221.84;;;22.51;53.21
9893;BME280;4985;49.092;8.542;2023-05-07T10:09:03;99229.88;;;22.51;53.20
9893;BME280;4985;49.092;8.542;2023-05-07T10:11:31;99229.88;;;22.51;53.21
9893;BME280;4985;49.092;8.542;2023-05-07T10:13:58;99226.13;;;22.52;53.21
9893;BME280;4985;49.092;8.542;2023-05-07T10:16:28;99212.72;;;22.52;53.21
9893;BME280;4985;49.092;8.542;2023-05-07T10:18:57;99205.28;;;22.54;53.21
9893;BME280;4985;49.092;8.542;2023-05-07T10:21:27;99205.28;;;22.54;53.21
9893;BME280;4985;49.092;8.542;2023-05-07T10:23:58;99206.91;;;22.55;53.21
9893;BME280;4985;49.092;8.542;2023-05-07T10:26:25;99211.22;;;22.56;53.20
9893;BME280;4985;49.092;8.542;2023-05-07T10:29:04;99212.81;;;22.57;53.20
9893;BME280;4985;49.092;8.542;2023-05-07T10:31:50;99208.28;;;22.58;53.20
9893;BME280;4985;49.092;8.542;2023-05-07T10:34:21;99213.66;;;22.58;53.20
9893;BME280;4985;49.092;8.542;2023-05-07T10:36:50;99210.72;;;22.59;53.21
9893;BME280;4985;49.092;8.542;2023-05-07T10:39:19;99208.03;;;22.59;53.20
9893;BME280;4985;49.092;8.542;2023-05-07T10:41:46;99211.53;;;22.60;53.22
9893;BME280;4985;49.092;8.542;2023-05-07T10:44:24;99204.28;;;22.60;53.23
9893;BME280;4985;49.092;8.542;2023-05-07T10:47:05;99210.22;;;22.62;53.21
9893;BME280;4985;49.092;8.542;2023-05-07T10:49:34;99201.09;;;22.63;53.19
9893;BME280;4985;49.092;8.542;2023-05-07T10:52:15;99193.56;;;22.60;53.21
9893;BME280;4985;49.092;8.542;2023-05-07T10:54:42;99199.47;;;22.62;53.20
9893;BME280;4985;49.092;8.542;2023-05-07T10:57:33;99202.72;;;22.64;53.21
9893;BME280;4985;49.092;8.542;2023-05-07T11:00:02;99203.53;;;22.65;53.24
9893;BME280;4985;49.092;8.542;2023-05-07T11:03:06;99200.06;;;22.64;53.26
9893;BME280;4985;49.092;8.542;2023-05-07T11:05:33;99204.38;;;22.65;53.28
9893;BME280;4985;49.092;8.542;2023-05-07T11:08:01;99200.66;;;22.66;53.29
9893;BME280;4985;49.092;8.542;2023-05-07T11:10:52;99195.28;;;22.66;53.31
9893;BME280;4985;49.092;8.542;2023-05-07T11:13:42;99189.91;;;22.66;53.32
9893;BME280;4985;49.092;8.542;2023-05-07T11:16:20;99191.53;;;22.67;53.33
9893;BME280;4985;49.092;8.542;2023-05-07T11:18:50;99180.00;;;22.67;53.33
9893;BME280;4985;49.092;8.542;2023-05-07T11:21:34;99189.41;;;22.70;53.34
9893;BME280;4985;49.092;8.542;2023-05-07T11:24:02;99176.81;;;22.70;53.36
9893;BME280;4985;49.092;8.542;2023-05-07T11:26:30;99174.94;;;22.71;53.35
9893;BME280;4985;49.092;8.542;2023-05-07T11:28:57;99173.88;;;22.72;53.35
9893;BME280;4985;49.092;8.542;2023-05-07T11:31:26;99175.50;;;22.73;53.35
9893;BME280;4985;49.092;8.542;2023-05-07T11:33:57;99170.94;;;22.73;53.34
9893;BME280;4985;49.092;8.542;2023-05-07T11:36:24;99175.50;;;22.73;53.34
9893;BME280;4985;49.092;8.542;2023-05-07T11:38:51;99183.06;;;22.76;53.36
9893;BME280;4985;49.092;8.542;2023-05-07T11:41:17;99185.75;;;22.76;53.37
9893;BME280;4985;49.092;8.542;2023-05-07T11:43:54;99173.97;;;22.77;53.38
9893;BME280;4985;49.092;8.542;2023-05-07T11:46:21;99177.22;;;22.79;53.40
9893;BME280;4985;49.092;8.542;2023-05-07T11:48:48;99175.59;;;22.78;53.41
9893;BME280;4985;49.092;8.542;2023-05-07T11:51:20;99178.03;;;22.79;53.43
9893;BME280;4985;49.092;8.542;2023-05-07T11:53:47;99171.28;;;22.77;53.42
9893;BME280;4985;49.092;8.542;2023-05-07T11:56:15;99173.47;;;22.80;53.44
9893;BME280;4985;49.092;8.542;2023-05-07T11:58:43;99175.91;;;22.81;53.45
9893;BME280;4985;49.092;8.542;2023-05-07T12:01:11;99176.72;;;22.82;53.45
9893;BME280;4985;49.092;8.542;2023-05-07T12:03:39;99178.34;;;22.83;53.44
9893;BME280;4985;49.092;8.542;2023-05-07T12:06:08;99180.00;;;22.84;53.43
9893;BME280;4985;49.092;8.542;2023-05-07T12:08:38;99181.62;;;22.85;53.42
9893;BME280;4985;49.092;8.542;2023-05-07T12:11:07;99164.47;;;22.86;53.41
9893;BME280;4985;49.092;8.542;2023-05-07T12:13:35;99167.75;;;22.88;53.36
9893;BME280;4985;49.092;8.542;2023-05-07T12:16:02;99166.66;;;22.89;53.35
9893;BME280;4985;49.092;8.542;2023-05-07T12:18:29;99166.66;;;22.89;53.35
9893;BME280;4985;49.092;8.542;2023-05-07T12:20:57;99168.03;;;22.91;53.34
9893;BME280;4985;49.092;8.542;2023-05-07T12:23:25;99169.09;;;22.90;53.36
9893;BME280;4985;49.092;8.542;2023-05-07T12:25:53;99162.69;;;22.91;53.35
9893;BME280;4985;49.092;8.542;2023-05-07T12:28:20;99156.25;;;22.92;53.37
9893;BME280;4985;49.092;8.542;2023-05-07T12:30:48;99165.13;;;22.93;53.34
9893;BME280;4985;49.092;8.542;2023-05-07T12:33:16;99164.03;;;22.94;53.33
9893;BME280;4985;49.092;8.542;2023-05-07T12:35:43;99160.56;;;22.93;53.33
9893;BME280;4985;49.092;8.542;2023-05-07T12:38:11;99168.34;;;22.95;53.33
9893;BME280;4985;49.092;8.542;2023-05-07T12:40:40;99166.47;;;22.95;53.32
9893;BME280;4985;49.092;8.542;2023-05-07T12:43:08;99153.88;;;22.96;53.32
9893;BME280;4985;49.092;8.542;2023-05-07T12:45:42;99162.19;;;22.94;53.30
9893;BME280;4985;49.092;8.542;2023-05-07T12:48:10;99168.91;;;22.97;53.31
9893;BME280;4985;49.092;8.542;2023-05-07T12:50:36;99164.34;;;22.98;53.28
9893;BME280;4985;49.092;8.542;2023-05-07T12:53:04;99171.34;;;22.99;53.28
9893;BME280;4985;49.092;8.542;2023-05-07T12:55:32;99177.56;;;22.99;53.25
9893;BME280;4985;49.092;8.542;2023-05-07T12:58:00;99178.37;;;23.00;53.23
9893;BME280;4985;49.092;8.542;2023-05-07T13:00:37;99172.75;;;23.01;53.21
9893;BME280;4985;49.092;8.542;2023-05-07T13:03:03;99173.56;;;23.02;53.18
9893;BME280;4985;49.092;8.542;2023-05-07T13:05:30;99172.50;;;23.03;53.16
9893;BME280;4985;49.092;8.542;2023-05-07T13:07:57;99174.38;;;23.02;53.15
9893;BME280;4985;49.092;8.542;2023-05-07T13:10:25;99178.37;;;23.00;53.13
9893;BME280;4985;49.092;8.542;2023-05-07T13:12:51;99191.03;;;23.04;53.13
9893;BME280;4985;49.092;8.542;2023-05-07T13:15:18;99196.66;;;23.03;53.11
9893;BME280;4985;49.092;8.542;2023-05-07T13:17:46;99207.97;;;23.05;53.08
9893;BME280;4985;49.092;8.542;2023-05-07T13:20:13;99214.72;;;23.07;53.02
9893;BME280;4985;49.092;8.542;2023-05-07T13:22:41;99217.91;;;23.04;52.99
9893;BME280;4985;49.092;8.542;2023-05-07T13:25:08;99228.69;;;23.09;52.95
9893;BME280;4985;49.092;8.542;2023-05-07T13:27:35;99235.69;;;23.10;52.90